Bodrum, Turkey
Current Conditions -  °F | °C
As of 5:50 PM on Saturday 25 Oct 2014 (Local Time) from LTFE Reporting Station
Thunderstorm Thunderstorm  
Wind Chill: 66°   Ceiling: Unl
Heat Index: 66°   Visibility: 6mi
Dew Point: 55°   Wind: 14mph
Humidity: 68%   Direction: 180°S
Pressure: 29.88"   Gusts: NA
Location:  37.04°N, 27.43°E
Report Text: LTFE 251450Z 18012KT 9999 TS FEW016CB SCT030 19/13 Q1012 BECMG TL1520 24014KT TEMPO TL1600 -TSRA
Loading
Personal Weather Stations






























Interactive Weather Map
Tropical Storm Tracking
New forecast layout! Learn more

10-Day Weather Forecast

Advertisements
Track Severe Weather on mobile